sensor_id;sensor_type;location;lat;lon;timestamp;P1;durP1;ratioP1;P2;durP2;ratioP2
45322;SDS011;31382;50.200;8.674;2023-06-01T00:00:25;2.60;;;1.10;;
45322;SDS011;31382;50.200;8.674;2023-06-01T00:05:27;3.65;;;1.08;;
45322;SDS011;31382;50.200;8.674;2023-06-01T00:10:28;4.30;;;1.05;;
45322;SDS011;31382;50.200;8.674;2023-06-01T00:15:30;1.77;;;0.90;;
45322;SDS011;31382;50.200;8.674;2023-06-01T00:20:31;2.78;;;0.70;;
45322;SDS011;31382;50.200;8.674;2023-06-01T00:25:33;3.00;;;0.70;;
45322;SDS011;31382;50.200;8.674;2023-06-01T00:30:34;3.95;;;0.70;;
45322;SDS011;31382;50.200;8.674;2023-06-01T00:35:36;3.22;;;0.80;;
45322;SDS011;31382;50.200;8.674;2023-06-01T00:40:37;1.83;;;0.82;;
45322;SDS011;31382;50.200;8.674;2023-06-01T00:45:39;7.85;;;0.90;;
45322;SDS011;31382;50.200;8.674;2023-06-01T00:50:41;2.30;;;0.80;;
45322;SDS011;31382;50.200;8.674;2023-06-01T00:55:43;2.92;;;0.95;;
45322;SDS011;31382;50.200;8.674;2023-06-01T01:00:45;3.10;;;0.90;;
45322;SDS011;31382;50.200;8.674;2023-06-01T01:05:49;2.28;;;1.38;;
45322;SDS011;31382;50.200;8.674;2023-06-01T01:16:22;3.60;;;1.40;;
45322;SDS011;31382;50.200;8.674;2023-06-01T01:21:32;4.25;;;1.48;;
45322;SDS011;31382;50.200;8.674;2023-06-01T01:32:16;3.97;;;1.10;;
45322;SDS011;31382;50.200;8.674;2023-06-01T01:37:18;2.85;;;1.00;;
45322;SDS011;31382;50.200;8.674;2023-06-01T01:42:22;3.67;;;1.10;;
45322;SDS011;31382;50.200;8.674;2023-06-01T01:47:29;4.68;;;1.75;;
45322;SDS011;31382;50.200;8.674;2023-06-01T01:52:37;3.22;;;1.00;;
45322;SDS011;31382;50.200;8.674;2023-06-01T01:57:40;2.85;;;0.80;;
45322;SDS011;31382;50.200;8.674;2023-06-01T02:02:44;4.00;;;1.02;;
45322;SDS011;31382;50.200;8.674;2023-06-01T02:07:46;6.03;;;1.17;;
45322;SDS011;31382;50.200;8.674;2023-06-01T02:12:48;5.93;;;0.95;;
45322;SDS011;31382;50.200;8.674;2023-06-01T02:17:49;6.82;;;0.90;;
45322;SDS011;31382;50.200;8.674;2023-06-01T02:22:52;2.38;;;1.00;;
45322;SDS011;31382;50.200;8.674;2023-06-01T02:27:54;3.40;;;1.63;;
45322;SDS011;31382;50.200;8.674;2023-06-01T02:32:55;5.10;;;1.05;;
45322;SDS011;31382;50.200;8.674;2023-06-01T02:37:57;3.03;;;0.98;;
45322;SDS011;31382;50.200;8.674;2023-06-01T02:42:58;2.55;;;0.80;;
45322;SDS011;31382;50.200;8.674;2023-06-01T02:47:59;3.38;;;0.90;;
45322;SDS011;31382;50.200;8.674;2023-06-01T02:53:01;6.10;;;1.02;;
45322;SDS011;31382;50.200;8.674;2023-06-01T02:58:02;2.42;;;0.60;;
45322;SDS011;31382;50.200;8.674;2023-06-01T03:03:04;2.05;;;0.70;;
45322;SDS011;31382;50.200;8.674;2023-06-01T03:08:05;3.67;;;0.95;;
45322;SDS011;31382;50.200;8.674;2023-06-01T03:13:07;5.70;;;0.77;;
45322;SDS011;31382;50.200;8.674;2023-06-01T03:18:08;3.28;;;0.70;;
45322;SDS011;31382;50.200;8.674;2023-06-01T03:23:10;4.28;;;0.80;;
45322;SDS011;31382;50.200;8.674;2023-06-01T03:28:11;2.72;;;0.68;;
45322;SDS011;31382;50.200;8.674;2023-06-01T03:33:13;5.28;;;0.70;;
45322;SDS011;31382;50.200;8.674;2023-06-01T03:38:14;2.60;;;0.80;;
45322;SDS011;31382;50.200;8.674;2023-06-01T03:43:16;3.80;;;0.70;;
45322;SDS011;31382;50.200;8.674;2023-06-01T03:48:17;3.20;;;0.70;;
45322;SDS011;31382;50.200;8.674;2023-06-01T03:53:19;3.85;;;0.57;;
45322;SDS011;31382;50.200;8.674;2023-06-01T03:58:21;2.63;;;0.90;;
45322;SDS011;31382;50.200;8.674;2023-06-01T04:03:23;5.75;;;0.80;;
45322;SDS011;31382;50.200;8.674;2023-06-01T04:08:27;3.35;;;1.40;;
45322;SDS011;31382;50.200;8.674;2023-06-01T04:13:28;7.03;;;0.90;;
45322;SDS011;31382;50.200;8.674;2023-06-01T04:18:34;5.45;;;1.00;;
45322;SDS011;31382;50.200;8.674;2023-06-01T04:23:36;5.03;;;1.08;;
45322;SDS011;31382;50.200;8.674;2023-06-01T04:28:38;4.97;;;1.23;;
45322;SDS011;31382;50.200;8.674;2023-06-01T04:33:45;8.03;;;2.20;;
45322;SDS011;31382;50.200;8.674;2023-06-01T04:38:47;6.00;;;2.05;;
45322;SDS011;31382;50.200;8.674;2023-06-01T04:43:54;2.63;;;1.00;;
45322;SDS011;31382;50.200;8.674;2023-06-01T04:48:55;5.13;;;1.25;;
45322;SDS011;31382;50.200;8.674;2023-06-01T04:53:58;5.43;;;1.15;;
45322;SDS011;31382;50.200;8.674;2023-06-01T04:59:00;3.75;;;0.82;;
45322;SDS011;31382;50.200;8.674;2023-06-01T05:04:02;2.15;;;0.88;;
45322;SDS011;31382;50.200;8.674;2023-06-01T05:09:04;7.30;;;1.35;;
45322;SDS011;31382;50.200;8.674;2023-06-01T05:14:06;5.68;;;1.38;;
45322;SDS011;31382;50.200;8.674;2023-06-01T05:19:07;2.03;;;0.90;;
45322;SDS011;31382;50.200;8.674;2023-06-01T05:24:09;4.90;;;1.08;;
45322;SDS011;31382;50.200;8.674;2023-06-01T05:29:10;4.90;;;0.93;;
45322;SDS011;31382;50.200;8.674;2023-06-01T05:34:12;3.50;;;1.15;;
45322;SDS011;31382;50.200;8.674;2023-06-01T05:39:14;5.82;;;1.95;;
45322;SDS011;31382;50.200;8.674;2023-06-01T05:44:16;6.00;;;1.15;;
45322;SDS011;31382;50.200;8.674;2023-06-01T05:49:17;2.45;;;0.85;;
45322;SDS011;31382;50.200;8.674;2023-06-01T05:54:19;3.60;;;1.45;;
45322;SDS011;31382;50.200;8.674;2023-06-01T05:59:20;3.53;;;0.85;;
45322;SDS011;31382;50.200;8.674;2023-06-01T06:04:22;6.53;;;0.80;;
45322;SDS011;31382;50.200;8.674;2023-06-01T06:09:23;3.35;;;0.77;;
45322;SDS011;31382;50.200;8.674;2023-06-01T06:14:25;3.70;;;0.70;;
45322;SDS011;31382;50.200;8.674;2023-06-01T06:19:26;7.47;;;0.60;;
45322;SDS011;31382;50.200;8.674;2023-06-01T06:24:28;5.95;;;0.73;;
45322;SDS011;31382;50.200;8.674;2023-06-01T06:29:29;3.08;;;0.70;;
45322;SDS011;31382;50.200;8.674;2023-06-01T06:34:31;3.92;;;0.57;;
45322;SDS011;31382;50.200;8.674;2023-06-01T06:39:36;7.72;;;0.93;;
45322;SDS011;31382;50.200;8.674;2023-06-01T06:44:41;1.83;;;0.70;;
45322;SDS011;31382;50.200;8.674;2023-06-01T06:49:42;3.80;;;0.85;;
45322;SDS011;31382;50.200;8.674;2023-06-01T06:54:44;4.03;;;0.52;;
45322;SDS011;31382;50.200;8.674;2023-06-01T06:59:45;3.67;;;0.95;;
45322;SDS011;31382;50.200;8.674;2023-06-01T07:04:47;2.80;;;0.70;;
45322;SDS011;31382;50.200;8.674;2023-06-01T07:09:49;4.93;;;0.73;;
45322;SDS011;31382;50.200;8.674;2023-06-01T07:14:51;3.33;;;0.70;;
45322;SDS011;31382;50.200;8.674;2023-06-01T07:19:54;3.50;;;0.73;;
45322;SDS011;31382;50.200;8.674;2023-06-01T07:24:55;2.22;;;0.80;;
45322;SDS011;31382;50.200;8.674;2023-06-01T07:29:57;7.88;;;2.13;;
45322;SDS011;31382;50.200;8.674;2023-06-01T07:34:58;2.75;;;0.68;;
45322;SDS011;31382;50.200;8.674;2023-06-01T07:40:00;4.15;;;1.02;;
45322;SDS011;31382;50.200;8.674;2023-06-01T07:45:02;2.47;;;0.70;;
45322;SDS011;31382;50.200;8.674;2023-06-01T07:50:04;5.30;;;1.13;;
45322;SDS011;31382;50.200;8.674;2023-06-01T07:55:06;3.95;;;0.70;;
45322;SDS011;31382;50.200;8.674;2023-06-01T08:00:12;3.72;;;0.90;;
45322;SDS011;31382;50.200;8.674;2023-06-01T08:05:14;3.58;;;0.80;;
45322;SDS011;31382;50.200;8.674;2023-06-01T08:10:19;1.77;;;0.85;;
45322;SDS011;31382;50.200;8.674;2023-06-01T08:15:20;2.17;;;0.65;;
45322;SDS011;31382;50.200;8.674;2023-06-01T08:20:22;2.25;;;0.70;;
45322;SDS011;31382;50.200;8.674;2023-06-01T08:25:24;2.28;;;0.70;;
45322;SDS011;31382;50.200;8.674;2023-06-01T08:30:26;5.97;;;1.02;;
45322;SDS011;31382;50.200;8.674;2023-06-01T08:35:28;5.10;;;0.82;;
45322;SDS011;31382;50.200;8.674;2023-06-01T08:40:30;2.47;;;0.90;;
45322;SDS011;31382;50.200;8.674;2023-06-01T08:45:34;2.78;;;0.60;;
45322;SDS011;31382;50.200;8.674;2023-06-01T08:50:35;5.45;;;1.13;;
45322;SDS011;31382;50.200;8.674;2023-06-01T08:55:38;6.50;;;1.23;;
45322;SDS011;31382;50.200;8.674;2023-06-01T09:00:39;5.53;;;0.80;;
45322;SDS011;31382;50.200;8.674;2023-06-01T09:05:42;4.35;;;0.77;;
45322;SDS011;31382;50.200;8.674;2023-06-01T09:10:43;4.75;;;1.13;;
45322;SDS011;31382;50.200;8.674;2023-06-01T09:15:54;5.85;;;1.50;;
45322;SDS011;31382;50.200;8.674;2023-06-01T09:21:14;3.70;;;1.20;;
45322;SDS011;31382;50.200;8.674;2023-06-01T09:26:19;1.77;;;0.73;;
45322;SDS011;31382;50.200;8.674;2023-06-01T09:31:38;3.00;;;0.73;;
45322;SDS011;31382;50.200;8.674;2023-06-01T09:36:53;2.45;;;0.55;;
45322;SDS011;31382;50.200;8.674;2023-06-01T09:41:56;4.13;;;0.80;;
45322;SDS011;31382;50.200;8.674;2023-06-01T09:47:09;1.23;;;0.52;;
45322;SDS011;31382;50.200;8.674;2023-06-01T09:52:13;2.60;;;0.50;;
45322;SDS011;31382;50.200;8.674;2023-06-01T09:57:22;3.60;;;0.40;;
45322;SDS011;31382;50.200;8.674;2023-06-01T10:02:24;4.30;;;0.55;;
45322;SDS011;31382;50.200;8.674;2023-06-01T10:07:27;5.82;;;1.08;;
45322;SDS011;31382;50.200;8.674;2023-06-01T10:12:31;2.10;;;0.50;;
45322;SDS011;31382;50.200;8.674;2023-06-01T10:17:35;5.10;;;0.50;;
45322;SDS011;31382;50.200;8.674;2023-06-01T10:22:40;2.08;;;1.02;;
45322;SDS011;31382;50.200;8.674;2023-06-01T10:27:51;7.10;;;0.68;;
45322;SDS011;31382;50.200;8.674;2023-06-01T10:32:56;3.13;;;1.25;;
45322;SDS011;31382;50.200;8.674;2023-06-01T10:48:50;4.75;;;0.40;;
45322;SDS011;31382;50.200;8.674;2023-06-01T10:53:57;9.18;;;1.45;;
45322;SDS011;31382;50.200;8.674;2023-06-01T10:59:28;2.83;;;0.60;;
45322;SDS011;31382;50.200;8.674;2023-06-01T11:04:36;5.05;;;1.00;;
45322;SDS011;31382;50.200;8.674;2023-06-01T11:09:44;3.28;;;0.80;;
45322;SDS011;31382;50.200;8.674;2023-06-01T11:15:29;2.75;;;0.70;;
45322;SDS011;31382;50.200;8.674;2023-06-01T11:20:12;3.05;;;0.55;;
45322;SDS011;31382;50.200;8.674;2023-06-01T11:25:15;4.03;;;1.00;;
45322;SDS011;31382;50.200;8.674;2023-06-01T11:30:19;1.85;;;0.70;;
45322;SDS011;31382;50.200;8.674;2023-06-01T11:35:21;1.77;;;0.55;;
45322;SDS011;31382;50.200;8.674;2023-06-01T11:40:24;1.80;;;0.68;;
45322;SDS011;31382;50.200;8.674;2023-06-01T11:45:30;3.78;;;0.65;;
45322;SDS011;31382;50.200;8.674;2023-06-01T11:50:31;5.05;;;0.88;;
45322;SDS011;31382;50.200;8.674;2023-06-01T11:55:33;1.58;;;0.60;;
45322;SDS011;31382;50.200;8.674;2023-06-01T12:00:37;3.03;;;0.68;;
45322;SDS011;31382;50.200;8.674;2023-06-01T12:05:40;1.90;;;0.70;;
45322;SDS011;31382;50.200;8.674;2023-06-01T12:15:50;2.42;;;0.75;;
45322;SDS011;31382;50.200;8.674;2023-06-01T12:20:52;2.70;;;0.50;;
45322;SDS011;31382;50.200;8.674;2023-06-01T12:25:54;4.90;;;0.90;;
45322;SDS011;31382;50.200;8.674;2023-06-01T12:31:11;1.27;;;0.43;;
45322;SDS011;31382;50.200;8.674;2023-06-01T12:41:32;3.42;;;0.90;;
45322;SDS011;31382;50.200;8.674;2023-06-01T12:46:34;2.38;;;0.70;;
45322;SDS011;31382;50.200;8.674;2023-06-01T12:51:37;3.15;;;0.40;;
45322;SDS011;31382;50.200;8.674;2023-06-01T12:56:39;3.25;;;0.60;;
45322;SDS011;31382;50.200;8.674;2023-06-01T13:01:40;4.50;;;0.70;;
45322;SDS011;31382;50.200;8.674;2023-06-01T13:06:42;2.60;;;0.55;;
45322;SDS011;31382;50.200;8.674;2023-06-01T13:11:45;1.60;;;0.50;;
45322;SDS011;31382;50.200;8.674;2023-06-01T13:16:47;2.40;;;0.52;;
45322;SDS011;31382;50.200;8.674;2023-06-01T13:21:48;2.63;;;0.70;;
45322;SDS011;31382;50.200;8.674;2023-06-01T13:26:50;2.67;;;0.50;;
45322;SDS011;31382;50.200;8.674;2023-06-01T13:31:52;1.58;;;0.50;;
45322;SDS011;31382;50.200;8.674;2023-06-01T13:36:53;3.70;;;0.50;;
45322;SDS011;31382;50.200;8.674;2023-06-01T13:41:55;1.08;;;0.50;;
45322;SDS011;31382;50.200;8.674;2023-06-01T13:46:56;2.88;;;0.70;;
45322;SDS011;31382;50.200;8.674;2023-06-01T13:51:57;4.65;;;0.40;;
45322;SDS011;31382;50.200;8.674;2023-06-01T13:57:00;2.88;;;0.45;;
45322;SDS011;31382;50.200;8.674;2023-06-01T14:02:04;0.90;;;0.50;;
45322;SDS011;31382;50.200;8.674;2023-06-01T14:07:06;3.45;;;0.60;;
45322;SDS011;31382;50.200;8.674;2023-06-01T14:12:08;3.40;;;1.17;;
45322;SDS011;31382;50.200;8.674;2023-06-01T14:17:10;5.10;;;0.52;;
45322;SDS011;31382;50.200;8.674;2023-06-01T14:22:11;1.02;;;0.50;;
45322;SDS011;31382;50.200;8.674;2023-06-01T14:27:13;0.57;;;0.45;;
45322;SDS011;31382;50.200;8.674;2023-06-01T14:32:14;0.73;;;0.50;;
45322;SDS011;31382;50.200;8.674;2023-06-01T14:37:16;4.15;;;0.55;;
45322;SDS011;31382;50.200;8.674;2023-06-01T14:42:17;1.95;;;0.75;;
45322;SDS011;31382;50.200;8.674;2023-06-01T14:47:19;2.05;;;0.50;;
45322;SDS011;31382;50.200;8.674;2023-06-01T14:52:20;3.22;;;0.93;;
45322;SDS011;31382;50.200;8.674;2023-06-01T14:57:22;4.28;;;0.73;;
45322;SDS011;31382;50.200;8.674;2023-06-01T15:02:23;2.80;;;0.52;;
45322;SDS011;31382;50.200;8.674;2023-06-01T15:07:24;2.80;;;0.85;;
45322;SDS011;31382;50.200;8.674;2023-06-01T15:12:26;2.25;;;0.60;;
45322;SDS011;31382;50.200;8.674;2023-06-01T15:17:27;2.38;;;0.50;;
45322;SDS011;31382;50.200;8.674;2023-06-01T15:22:29;1.10;;;0.70;;
45322;SDS011;31382;50.200;8.674;2023-06-01T15:27:30;1.95;;;0.70;;
45322;SDS011;31382;50.200;8.674;2023-06-01T15:32:32;4.60;;;0.93;;
45322;SDS011;31382;50.200;8.674;2023-06-01T15:37:33;11.02;;;1.77;;
45322;SDS011;31382;50.200;8.674;2023-06-01T15:42:35;2.35;;;0.75;;
45322;SDS011;31382;50.200;8.674;2023-06-01T15:47:37;1.73;;;0.60;;
45322;SDS011;31382;50.200;8.674;2023-06-01T15:52:38;1.90;;;0.57;;
45322;SDS011;31382;50.200;8.674;2023-06-01T15:57:40;3.22;;;1.10;;
45322;SDS011;31382;50.200;8.674;2023-06-01T16:02:41;2.55;;;0.82;;
45322;SDS011;31382;50.200;8.674;2023-06-01T16:07:43;4.18;;;1.85;;
45322;SDS011;31382;50.200;8.674;2023-06-01T16:12:44;7.43;;;2.58;;
45322;SDS011;31382;50.200;8.674;2023-06-01T16:17:46;4.38;;;2.20;;
45322;SDS011;31382;50.200;8.674;2023-06-01T16:22:47;7.13;;;2.65;;
45322;SDS011;31382;50.200;8.674;2023-06-01T16:27:49;3.97;;;2.20;;
45322;SDS011;31382;50.200;8.674;2023-06-01T16:32:51;3.00;;;1.67;;
45322;SDS011;31382;50.200;8.674;2023-06-01T16:37:53;2.80;;;2.08;;
45322;SDS011;31382;50.200;8.674;2023-06-01T16:42:54;4.10;;;2.03;;
45322;SDS011;31382;50.200;8.674;2023-06-01T16:47:55;4.38;;;1.92;;
45322;SDS011;31382;50.200;8.674;2023-06-01T16:52:57;2.85;;;1.90;;
45322;SDS011;31382;50.200;8.674;2023-06-01T16:57:58;3.40;;;2.20;;
45322;SDS011;31382;50.200;8.674;2023-06-01T17:03:00;2.58;;;1.67;;
45322;SDS011;31382;50.200;8.674;2023-06-01T17:08:02;3.60;;;1.60;;
45322;SDS011;31382;50.200;8.674;2023-06-01T17:13:03;4.38;;;1.40;;
45322;SDS011;31382;50.200;8.674;2023-06-01T17:18:05;4.32;;;1.27;;
45322;SDS011;31382;50.200;8.674;2023-06-01T17:23:06;3.60;;;1.90;;
45322;SDS011;31382;50.200;8.674;2023-06-01T17:28:08;2.58;;;1.40;;
45322;SDS011;31382;50.200;8.674;2023-06-01T17:33:09;3.70;;;1.75;;
45322;SDS011;31382;50.200;8.674;2023-06-01T17:38:11;4.50;;;1.73;;
45322;SDS011;31382;50.200;8.674;2023-06-01T17:43:12;3.08;;;1.67;;
45322;SDS011;31382;50.200;8.674;2023-06-01T17:48:14;6.70;;;1.55;;
45322;SDS011;31382;50.200;8.674;2023-06-01T17:53:16;3.35;;;1.55;;
45322;SDS011;31382;50.200;8.674;2023-06-01T17:58:38;3.03;;;1.67;;
45322;SDS011;31382;50.200;8.674;2023-06-01T18:03:40;3.30;;;1.70;;
45322;SDS011;31382;50.200;8.674;2023-06-01T18:08:41;4.32;;;2.10;;
45322;SDS011;31382;50.200;8.674;2023-06-01T18:13:44;4.20;;;2.38;;
45322;SDS011;31382;50.200;8.674;2023-06-01T18:18:45;5.57;;;2.90;;
45322;SDS011;31382;50.200;8.674;2023-06-01T18:23:47;5.47;;;2.35;;
45322;SDS011;31382;50.200;8.674;2023-06-01T18:28:50;3.78;;;2.22;;
45322;SDS011;31382;50.200;8.674;2023-06-01T18:33:52;3.33;;;1.90;;
45322;SDS011;31382;50.200;8.674;2023-06-01T18:38:53;5.75;;;2.20;;
45322;SDS011;31382;50.200;8.674;2023-06-01T18:43:55;6.82;;;3.58;;
45322;SDS011;31382;50.200;8.674;2023-06-01T18:48:56;4.72;;;2.65;;
45322;SDS011;31382;50.200;8.674;2023-06-01T18:53:58;5.18;;;2.95;;
45322;SDS011;31382;50.200;8.674;2023-06-01T18:59:01;4.10;;;2.60;;
45322;SDS011;31382;50.200;8.674;2023-06-01T19:04:03;6.85;;;2.78;;
45322;SDS011;31382;50.200;8.674;2023-06-01T19:09:05;3.85;;;2.83;;
45322;SDS011;31382;50.200;8.674;2023-06-01T19:14:11;7.55;;;3.22;;
45322;SDS011;31382;50.200;8.674;2023-06-01T19:19:17;9.85;;;3.85;;
45322;SDS011;31382;50.200;8.674;2023-06-01T19:24:24;3.63;;;2.20;;
45322;SDS011;31382;50.200;8.674;2023-06-01T19:29:27;4.18;;;2.60;;
45322;SDS011;31382;50.200;8.674;2023-06-01T19:34:30;8.35;;;3.03;;
45322;SDS011;31382;50.200;8.674;2023-06-01T19:39:33;8.27;;;3.33;;
45322;SDS011;31382;50.200;8.674;2023-06-01T19:44:39;6.13;;;3.40;;
45322;SDS011;31382;50.200;8.674;2023-06-01T19:49:41;4.20;;;2.70;;
45322;SDS011;31382;50.200;8.674;2023-06-01T19:54:42;6.13;;;3.05;;
45322;SDS011;31382;50.200;8.674;2023-06-01T19:59:44;9.25;;;3.65;;
45322;SDS011;31382;50.200;8.674;2023-06-01T20:04:45;7.32;;;3.85;;
45322;SDS011;31382;50.200;8.674;2023-06-01T20:09:47;5.72;;;3.92;;
45322;SDS011;31382;50.200;8.674;2023-06-01T20:14:50;7.07;;;3.53;;
45322;SDS011;31382;50.200;8.674;2023-06-01T20:19:52;6.38;;;2.90;;
45322;SDS011;31382;50.200;8.674;2023-06-01T20:24:54;5.72;;;3.13;;
45322;SDS011;31382;50.200;8.674;2023-06-01T20:29:55;8.13;;;3.08;;
45322;SDS011;31382;50.200;8.674;2023-06-01T20:34:57;6.13;;;4.07;;
45322;SDS011;31382;50.200;8.674;2023-06-01T20:39:58;7.93;;;3.63;;
45322;SDS011;31382;50.200;8.674;2023-06-01T20:45:00;10.77;;;4.47;;
45322;SDS011;31382;50.200;8.674;2023-06-01T20:50:02;7.40;;;4.25;;
45322;SDS011;31382;50.200;8.674;2023-06-01T20:55:03;11.30;;;4.00;;
45322;SDS011;31382;50.200;8.674;2023-06-01T21:00:12;8.90;;;5.22;;
45322;SDS011;31382;50.200;8.674;2023-06-01T21:05:16;19.42;;;5.28;;
45322;SDS011;31382;50.200;8.674;2023-06-01T21:10:17;10.35;;;4.75;;
45322;SDS011;31382;50.200;8.674;2023-06-01T21:15:19;10.32;;;4.60;;
45322;SDS011;31382;50.200;8.674;2023-06-01T21:20:20;8.90;;;4.40;;
45322;SDS011;31382;50.200;8.674;2023-06-01T21:25:23;11.45;;;3.92;;
45322;SDS011;31382;50.200;8.674;2023-06-01T21:30:25;9.52;;;4.50;;
45322;SDS011;31382;50.200;8.674;2023-06-01T21:35:26;9.43;;;4.22;;
45322;SDS011;31382;50.200;8.674;2023-06-01T21:40:28;6.38;;;4.85;;
45322;SDS011;31382;50.200;8.674;2023-06-01T21:45:29;9.80;;;4.00;;
45322;SDS011;31382;50.200;8.674;2023-06-01T21:50:37;6.97;;;4.20;;
45322;SDS011;31382;50.200;8.674;2023-06-01T21:55:39;6.88;;;3.92;;
45322;SDS011;31382;50.200;8.674;2023-06-01T22:00:43;7.85;;;4.35;;
45322;SDS011;31382;50.200;8.674;2023-06-01T22:05:46;7.32;;;4.30;;
45322;SDS011;31382;50.200;8.674;2023-06-01T22:10:48;6.20;;;3.80;;
45322;SDS011;31382;50.200;8.674;2023-06-01T22:15:50;4.88;;;3.53;;
45322;SDS011;31382;50.200;8.674;2023-06-01T22:20:51;6.88;;;3.90;;
45322;SDS011;31382;50.200;8.674;2023-06-01T22:25:53;5.38;;;3.65;;
45322;SDS011;31382;50.200;8.674;2023-06-01T22:30:54;5.90;;;3.15;;
45322;SDS011;31382;50.200;8.674;2023-06-01T22:35:56;8.23;;;4.70;;
45322;SDS011;31382;50.200;8.674;2023-06-01T22:40:57;3.50;;;2.95;;
45322;SDS011;31382;50.200;8.674;2023-06-01T22:45:59;7.57;;;4.25;;
45322;SDS011;31382;50.200;8.674;2023-06-01T22:51:00;5.30;;;3.60;;
45322;SDS011;31382;50.200;8.674;2023-06-01T22:56:03;7.60;;;3.53;;
45322;SDS011;31382;50.200;8.674;2023-06-01T23:01:06;10.10;;;3.58;;
45322;SDS011;31382;50.200;8.674;2023-06-01T23:06:09;6.57;;;3.85;;
45322;SDS011;31382;50.200;8.674;2023-06-01T23:11:10;7.38;;;4.03;;
45322;SDS011;31382;50.200;8.674;2023-06-01T23:16:13;6.00;;;3.22;;
45322;SDS011;31382;50.200;8.674;2023-06-01T23:21:15;5.55;;;4.05;;
45322;SDS011;31382;50.200;8.674;2023-06-01T23:26:17;4.75;;;3.42;;
45322;SDS011;31382;50.200;8.674;2023-06-01T23:31:18;4.43;;;3.47;;
45322;SDS011;31382;50.200;8.674;2023-06-01T23:36:20;5.78;;;3.78;;
45322;SDS011;31382;50.200;8.674;2023-06-01T23:41:28;5.68;;;3.58;;
45322;SDS011;31382;50.200;8.674;2023-06-01T23:46:30;6.18;;;3.60;;
45322;SDS011;31382;50.200;8.674;2023-06-01T23:51:33;8.07;;;4.18;;
45322;SDS011;31382;50.200;8.674;2023-06-01T23:56:34;6.47;;;3.65;;
